Time;durP1;ratioP1;P1;durP2;ratioP2;P2;SDS_P1;SDS_P2;PMS_P1;PMS_P2;Temp;Humidity;BMP_temperature;BMP_pressure;BME280_temperature;BME280_humidity;BME280_pressure;Samples;Min_cycle;Max_cycle;Signal;HPM_P1;HPM_P2
2022/06/18 00:00:47;;;;;;;11.63;3.70;;;22.60;96.10;;;;;;5052770;28;20032;-64
2022/06/18 00:03:13;;;;;;;10.25;3.78;;;22.60;96.50;;;;;;5053174;28;20025;-64
2022/06/18 00:05:41;;;;;;;6.53;3.50;;;22.50;96.70;;;;;;5053068;28;20029;-64
2022/06/18 00:08:21;;;;;;;14.20;3.50;;;22.50;97.20;;;;;;5052634;28;20025;-66
2022/06/18 00:10:51;;;;;;;10.60;3.30;;;22.50;97.40;;;;;;5052420;28;20389;-64
2022/06/18 00:13:42;;;;;;;11.02;4.00;;;22.40;97.80;;;;;;5052968;28;20025;-64
2022/06/18 00:16:18;;;;;;;9.43;3.70;;;22.30;98.10;;;;;;5032859;28;20045;-66
2022/06/18 00:18:43;;;;;;;8.10;3.92;;;22.20;98.70;;;;;;5032701;28;20029;-64
2022/06/18 00:21:15;;;;;;;14.70;4.10;;;22.20;99.20;;;;;;5033114;28;20021;-64
2022/06/18 00:23:41;;;;;;;11.27;4.22;;;22.20;99.40;;;;;;5033098;28;20022;-64
2022/06/18 00:26:06;;;;;;;13.07;4.20;;;22.10;99.80;;;;;;5048098;28;20175;-64
2022/06/18 00:28:32;;;;;;;7.75;3.80;;;22.00;99.90;;;;;;5032556;28;20451;-66
2022/06/18 00:30:58;;;;;;;11.48;3.95;;;22.00;99.90;;;;;;5033284;28;20057;-63
2022/06/18 00:33:24;;;;;;;9.93;4.45;;;21.90;99.90;;;;;;5033091;28;20021;-65
2022/06/18 00:35:56;;;;;;;11.45;4.53;;;21.80;99.90;;;;;;5033308;28;20048;-63
2022/06/18 00:38:29;;;;;;;9.70;4.00;;;21.80;99.90;;;;;;5036659;28;20022;-67
2022/06/18 00:40:56;;;;;;;13.98;4.43;;;21.70;99.90;;;;;;5036719;28;20354;-66
2022/06/18 00:43:35;;;;;;;13.23;4.43;;;21.60;99.90;;;;;;5034926;28;20044;-64
2022/06/18 00:46:24;;;;;;;14.35;4.45;;;21.50;99.90;;;;;;5036904;28;20363;-64
2022/06/18 00:48:59;;;;;;;12.90;4.30;;;21.50;99.90;;;;;;5035690;28;20037;-67
2022/06/18 00:51:35;;;;;;;12.93;4.53;;;21.40;99.90;;;;;;5051747;28;20027;-64
2022/06/18 00:54:19;;;;;;;12.98;5.32;;;21.30;99.90;;;;;;5035856;28;20029;-68
2022/06/18 00:56:53;;;;;;;16.52;5.05;;;21.20;99.90;;;;;;5035995;28;20021;-64
2022/06/18 00:59:31;;;;;;;10.50;4.63;;;21.20;99.90;;;;;;5068238;28;20474;-68
2022/06/18 01:01:58;;;;;;;14.65;5.72;;;21.10;99.90;;;;;;5035977;28;20021;-66
2022/06/18 01:04:28;;;;;;;13.60;5.45;;;21.00;99.90;;;;;;5035508;28;20068;-65
2022/06/18 01:07:06;;;;;;;14.15;5.18;;;20.90;99.90;;;;;;5067700;28;20060;-65
2022/06/18 01:09:35;;;;;;;12.73;4.78;;;20.90;99.90;;;;;;5035699;28;20060;-67
2022/06/18 01:12:01;;;;;;;18.20;4.93;;;20.90;99.90;;;;;;5035917;28;20445;-67
2022/06/18 01:14:27;;;;;;;14.77;5.75;;;20.80;99.90;;;;;;5043829;28;20021;-64
2022/06/18 01:16:56;;;;;;;18.98;5.90;;;20.70;99.90;;;;;;5055794;28;20036;-64
2022/06/18 01:19:37;;;;;;;10.43;5.13;;;20.60;99.90;;;;;;5054399;28;20028;-65
2022/06/18 01:22:27;;;;;;;16.05;5.57;;;20.60;99.90;;;;;;5055535;28;20025;-64
2022/06/18 01:24:53;;;;;;;17.90;5.63;;;20.50;99.90;;;;;;5055387;28;20057;-64
2022/06/18 01:27:18;;;;;;;16.27;6.47;;;20.40;99.90;;;;;;5054145;28;20063;-64
2022/06/18 01:29:44;;;;;;;19.38;5.72;;;20.30;99.90;;;;;;5054994;28;20548;-65
2022/06/18 01:32:13;;;;;;;14.93;5.60;;;20.30;99.90;;;;;;5055293;28;20098;-67
2022/06/18 01:34:39;;;;;;;18.45;6.10;;;20.20;99.90;;;;;;5054900;28;20055;-64
2022/06/18 01:37:06;;;;;;;17.45;6.10;;;20.10;99.90;;;;;;5055167;28;20021;-63
2022/06/18 01:39:39;;;;;;;23.20;7.22;;;20.10;99.90;;;;;;5053446;28;20120;-63
2022/06/18 01:42:14;;;;;;;13.70;5.85;;;20.00;99.90;;;;;;5054703;28;20447;-64
2022/06/18 01:44:48;;;;;;;19.52;6.13;;;19.90;99.90;;;;;;5054945;28;20362;-64
2022/06/18 01:47:22;;;;;;;15.43;6.40;;;19.90;99.90;;;;;;5053581;28;20017;-64
2022/06/18 01:49:59;;;;;;;18.40;6.53;;;19.80;99.90;;;;;;5055157;28;20032;-63
2022/06/18 01:52:30;;;;;;;21.65;6.55;;;19.80;99.90;;;;;;5055017;28;20020;-65
2022/06/18 01:54:59;;;;;;;22.77;6.97;;;19.70;99.90;;;;;;5054866;28;20026;-64
2022/06/18 01:57:31;;;;;;;18.48;6.85;;;19.70;99.90;;;;;;5054451;28;20060;-64
2022/06/18 02:00:08;;;;;;;19.48;7.20;;;19.60;99.90;;;;;;5053532;28;20458;-68
2022/06/18 02:02:34;;;;;;;20.42;7.57;;;19.60;99.90;;;;;;5054727;28;20040;-64
2022/06/18 02:05:00;;;;;;;22.58;8.00;;;19.50;99.90;;;;;;5054503;28;20013;-64
2022/06/18 02:07:25;;;;;;;22.35;7.65;;;19.50;99.90;;;;;;5054797;28;20430;-64
2022/06/18 02:10:05;;;;;;;16.42;7.00;;;19.40;99.90;;;;;;5054858;28;20178;-64
2022/06/18 02:12:38;;;;;;;22.17;7.80;;;19.40;99.90;;;;;;5053056;28;20071;-64
2022/06/18 02:15:08;;;;;;;19.75;6.88;;;19.30;99.90;;;;;;5054247;28;20028;-64
2022/06/18 02:17:35;;;;;;;22.77;7.35;;;19.30;99.90;;;;;;5054160;28;20070;-63
2022/06/18 02:20:11;;;;;;;24.70;8.45;;;19.20;99.90;;;;;;5054956;28;20021;-64
2022/06/18 02:22:47;;;;;;;21.67;7.40;;;19.20;99.90;;;;;;5054542;28;20048;-65
2022/06/18 02:25:14;;;;;;;22.33;8.20;;;19.10;99.90;;;;;;5052920;28;20352;-64
2022/06/18 02:27:41;;;;;;;18.40;7.65;;;19.00;99.90;;;;;;5053649;28;20024;-64
2022/06/18 02:30:28;;;;;;;21.42;7.47;;;19.00;99.90;;;;;;5054040;28;20454;-67
2022/06/18 02:33:28;;;;;;;22.33;8.02;;;18.90;99.90;;;;;;5054116;28;20478;-64
2022/06/18 02:35:55;;;;;;;22.02;8.80;;;18.90;99.90;;;;;;5022865;28;20048;-63
2022/06/18 02:38:22;;;;;;;23.15;8.70;;;18.80;99.90;;;;;;5054125;28;20021;-65
2022/06/18 02:40:48;;;;;;;21.73;7.90;;;18.80;99.90;;;;;;5054093;28;20048;-64
2022/06/18 02:43:17;;;;;;;21.15;8.02;;;18.80;99.90;;;;;;5054017;28;20025;-64
2022/06/18 02:45:44;;;;;;;25.13;9.10;;;18.70;99.90;;;;;;5053966;28;20051;-66
2022/06/18 02:48:10;;;;;;;23.85;8.38;;;18.70;99.90;;;;;;5053189;28;20021;-66
2022/06/18 02:50:40;;;;;;;24.60;9.27;;;18.70;99.90;;;;;;5052211;28;20075;-67
2022/06/18 02:53:08;;;;;;;28.42;10.82;;;18.70;99.90;;;;;;5053410;28;20029;-64
2022/06/18 02:55:41;;;;;;;26.00;9.32;;;18.60;99.90;;;;;;5053666;28;20017;-64
2022/06/18 02:58:10;;;;;;;24.88;8.73;;;18.60;99.90;;;;;;5053372;28;20443;-64
2022/06/18 03:00:37;;;;;;;28.98;9.88;;;18.60;99.90;;;;;;5053166;28;20035;-64
2022/06/18 03:03:08;;;;;;;23.90;9.20;;;18.50;99.90;;;;;;5051831;28;20120;-67
2022/06/18 03:05:34;;;;;;;25.23;9.73;;;18.50;99.90;;;;;;5053333;28;20074;-65
2022/06/18 03:08:00;;;;;;;23.05;9.02;;;18.50;99.90;;;;;;5052213;28;20032;-64
2022/06/18 03:13:10;;;;;;;20.83;8.02;;;18.40;99.90;;;;;;5053431;28;20363;-64
2022/06/18 03:15:36;;;;;;;24.40;9.35;;;18.40;99.90;;;;;;5053070;28;20455;-66
2022/06/18 03:18:02;;;;;;;27.00;9.18;;;18.40;99.90;;;;;;5053280;28;20017;-68
2022/06/18 03:20:54;;;;;;;24.70;9.05;;;18.40;99.90;;;;;;5053211;28;20021;-66
2022/06/18 03:23:21;;;;;;;;;;;18.40;99.90;;;;;;5053263;28;20021;-64
2022/06/18 03:25:47;;;;;;;25.45;8.85;;;18.40;99.90;;;;;;5052877;28;19900;-63
2022/06/18 03:28:14;;;;;;;27.25;9.63;;;18.30;99.90;;;;;;5053077;28;20029;-64
2022/06/18 03:30:41;;;;;;;24.23;8.93;;;18.30;99.90;;;;;;5051432;28;20112;-63
2022/06/18 03:33:07;;;;;;;23.02;9.07;;;18.30;99.90;;;;;;5052827;28;20017;-67
2022/06/18 03:35:33;;;;;;;21.02;9.38;;;18.30;99.90;;;;;;5052984;28;20488;-65
2022/06/18 03:37:59;;;;;;;29.63;9.48;;;18.30;99.90;;;;;;5052883;28;20086;-64
2022/06/18 03:40:25;;;;;;;27.67;11.68;;;18.40;99.90;;;;;;5052252;28;20462;-64
2022/06/18 03:42:52;;;;;;;22.83;9.60;;;18.40;99.90;;;;;;5052697;28;20025;-63
2022/06/18 03:45:18;;;;;;;23.05;10.25;;;18.40;99.90;;;;;;5052685;28;20024;-65
2022/06/18 03:47:44;;;;;;;26.52;8.68;;;18.40;99.90;;;;;;5052659;28;20039;-68
2022/06/18 03:50:15;;;;;;;21.25;8.60;;;18.40;99.90;;;;;;5052615;28;20037;-63
2022/06/18 03:52:41;;;;;;;22.55;8.70;;;18.40;99.90;;;;;;5052638;28;20021;-65
2022/06/18 03:55:07;;;;;;;22.85;8.70;;;18.50;99.90;;;;;;5052261;28;20392;-66
2022/06/18 03:57:32;;;;;;;23.77;8.65;;;18.50;99.90;;;;;;5052168;28;20021;-63
2022/06/18 03:59:59;;;;;;;19.38;8.55;;;18.50;99.90;;;;;;5052905;28;20103;-66
2022/06/18 04:02:24;;;;;;;22.08;9.52;;;18.50;99.90;;;;;;5052342;28;20021;-64
2022/06/18 04:04:50;;;;;;;21.92;9.88;;;18.60;99.90;;;;;;5052142;28;20447;-65
2022/06/18 04:07:22;;;;;;;24.48;11.38;;;18.60;99.90;;;;;;5052145;28;20698;-65
2022/06/18 04:09:50;;;;;;;32.10;12.48;;;18.60;99.90;;;;;;5051858;28;20052;-63
2022/06/18 04:12:17;;;;;;;20.20;10.13;;;18.60;99.90;;;;;;5053943;28;20028;-67
2022/06/18 04:14:43;;;;;;;21.30;9.07;;;18.70;99.90;;;;;;5056291;28;20024;-65
2022/06/18 04:17:14;;;;;;;23.05;9.52;;;18.80;99.90;;;;;;5056508;28;20021;-64
2022/06/18 04:19:40;;;;;;;25.42;10.55;;;18.80;99.90;;;;;;5055127;28;20017;-63
2022/06/18 04:22:06;;;;;;;22.50;10.05;;;18.90;99.90;;;;;;5056613;28;20025;-66
2022/06/18 04:24:31;;;;;;;26.23;9.40;;;18.90;99.90;;;;;;5056453;28;20466;-63
2022/06/18 04:26:58;;;;;;;22.73;10.65;;;19.00;99.90;;;;;;5056453;28;20512;-66
2022/06/18 04:29:24;;;;;;;25.30;10.18;;;19.10;99.90;;;;;;5054805;28;20086;-66
2022/06/18 04:31:50;;;;;;;26.33;11.15;;;19.10;99.90;;;;;;5055941;28;20044;-64
2022/06/18 04:34:16;;;;;;;22.70;9.95;;;19.20;99.90;;;;;;5055112;28;20478;-64
2022/06/18 04:36:41;;;;;;;23.17;11.48;;;19.30;99.90;;;;;;5056047;28;20049;-64
2022/06/18 04:39:08;;;;;;;23.67;10.43;;;19.40;99.90;;;;;;5055778;28;20031;-64
2022/06/18 04:41:33;;;;;;;25.52;10.90;;;19.50;99.90;;;;;;5055444;28;20373;-70
2022/06/18 04:43:59;;;;;;;20.65;9.25;;;19.50;99.90;;;;;;5055858;28;20058;-63
2022/06/18 04:46:25;;;;;;;21.25;8.25;;;19.60;99.90;;;;;;5054369;28;20354;-64
2022/06/18 04:48:51;;;;;;;19.67;7.97;;;19.70;99.90;;;;;;5055813;28;20040;-66
2022/06/18 04:51:17;;;;;;;17.85;7.70;;;19.80;99.90;;;;;;5055200;28;20442;-63
2022/06/18 04:53:42;;;;;;;16.13;7.10;;;19.90;99.90;;;;;;5055397;28;20071;-64
2022/06/18 04:56:09;;;;;;;19.95;7.50;;;20.00;99.90;;;;;;5054296;28;20502;-63
2022/06/18 04:58:34;;;;;;;20.50;7.47;;;20.10;99.90;;;;;;5055177;28;20029;-65
2022/06/18 05:01:00;;;;;;;18.98;6.68;;;20.20;99.90;;;;;;5053711;28;20174;-67
2022/06/18 05:03:27;;;;;;;20.67;6.78;;;20.40;99.90;;;;;;5055548;28;20051;-65
2022/06/18 05:05:53;;;;;;;17.60;7.13;;;20.50;99.90;;;;;;5052568;28;20017;-64
2022/06/18 05:08:18;;;;;;;17.58;6.70;;;20.70;99.90;;;;;;5055335;28;20025;-64
2022/06/18 05:10:44;;;;;;;16.83;6.07;;;20.80;99.90;;;;;;5055279;28;20040;-66
2022/06/18 05:13:11;;;;;;;15.43;5.65;;;20.90;99.90;;;;;;5055669;28;20044;-64
2022/06/18 05:15:38;;;;;;;16.02;6.22;;;21.10;99.90;;;;;;5055203;28;20028;-64
2022/06/18 05:18:05;;;;;;;17.60;7.25;;;21.20;99.90;;;;;;5055982;28;20036;-65
2022/06/18 05:20:31;;;;;;;15.70;5.68;;;21.30;99.90;;;;;;5055043;28;20070;-67
2022/06/18 05:22:57;;;;;;;16.10;6.35;;;21.40;99.90;;;;;;5055085;28;20020;-63
2022/06/18 05:25:23;;;;;;;15.23;5.75;;;21.60;99.90;;;;;;5054032;28;20025;-64
2022/06/18 05:27:49;;;;;;;20.50;7.38;;;21.90;99.90;;;;;;5055248;28;20013;-68
2022/06/18 05:30:21;;;;;;;15.90;5.85;;;22.20;99.90;;;;;;5055140;28;20416;-64
2022/06/18 05:32:47;;;;;;;17.80;5.80;;;22.60;99.90;;;;;;5055107;28;20414;-64
2022/06/18 05:35:13;;;;;;;15.85;5.28;;;23.00;99.90;;;;;;5055029;28;20017;-64
2022/06/18 05:37:39;;;;;;;15.13;5.03;;;23.30;99.90;;;;;;5054953;28;20580;-62
2022/06/18 05:40:06;;;;;;;14.63;5.20;;;23.60;99.90;;;;;;5055558;28;20025;-64
2022/06/18 05:42:32;;;;;;;16.50;5.25;;;23.80;99.90;;;;;;5055515;28;20025;-68
2022/06/18 05:44:58;;;;;;;16.77;5.00;;;24.10;99.90;;;;;;5055600;28;20435;-64
2022/06/18 05:47:28;;;;;;;17.45;5.68;;;24.40;99.90;;;;;;5055136;28;20025;-64
2022/06/18 05:49:56;;;;;;;14.77;5.28;;;24.70;99.50;;;;;;5055255;28;20052;-64
2022/06/18 05:52:22;;;;;;;17.38;4.65;;;25.00;98.90;;;;;;5055265;28;20423;-63
2022/06/18 05:54:51;;;;;;;14.02;4.85;;;25.10;98.40;;;;;;5055242;28;20071;-63
2022/06/18 05:57:20;;;;;;;12.43;4.13;;;25.30;98.00;;;;;;5055177;28;20461;-64
2022/06/18 05:59:46;;;;;;;12.10;3.88;;;25.50;97.90;;;;;;5053776;28;20629;-66
2022/06/18 06:02:14;;;;;;;14.57;4.10;;;25.60;97.60;;;;;;5055118;28;20481;-64
2022/06/18 06:04:42;;;;;;;10.35;3.88;;;25.90;97.40;;;;;;5055079;28;20052;-64
2022/06/18 06:07:13;;;;;;;12.52;4.28;;;26.20;97.10;;;;;;5054980;28;20025;-65
2022/06/18 06:12:23;;;;;;;11.35;3.47;;;26.90;96.30;;;;;;5054983;28;20638;-65
2022/06/18 06:14:48;;;;;;;11.15;3.70;;;26.90;95.70;;;;;;5055052;28;20025;-63
2022/06/18 06:17:19;;;;;;;7.72;3.50;;;26.80;95.70;;;;;;5053431;28;20071;-64
2022/06/18 06:19:44;;;;;;;11.80;3.75;;;26.80;95.90;;;;;;5053296;28;20074;-67
2022/06/18 06:22:10;;;;;;;6.68;3.13;;;26.90;95.80;;;;;;5054670;28;20021;-64
2022/06/18 06:24:35;;;;;;;9.18;3.25;;;27.20;95.40;;;;;;5054562;28;20020;-65
2022/06/18 06:27:01;;;;;;;7.22;2.33;;;27.30;95.00;;;;;;5054576;28;20029;-62
2022/06/18 06:29:27;;;;;;;9.77;2.70;;;27.40;94.70;;;;;;5054280;28;20097;-63
2022/06/18 06:31:52;;;;;;;7.53;2.30;;;27.40;94.60;;;;;;5054011;28;20048;-64
2022/06/18 06:34:18;;;;;;;5.97;2.90;;;27.40;94.70;;;;;;5054430;28;20354;-63
2022/06/18 06:36:43;;;;;;;9.95;3.15;;;27.70;94.40;;;;;;5054409;28;20036;-67
2022/06/18 06:39:09;;;;;;;8.18;2.88;;;28.20;94.10;;;;;;5054792;28;20025;-65
2022/06/18 06:41:35;;;;;;;8.02;2.90;;;28.80;93.60;;;;;;5054216;28;20409;-64
2022/06/18 06:44:00;;;;;;;8.52;3.00;;;29.40;92.80;;;;;;5053912;28;20339;-64
2022/06/18 06:46:26;;;;;;;12.68;3.53;;;29.80;91.70;;;;;;5053998;28;20443;-65
2022/06/18 06:48:51;;;;;;;9.00;2.50;;;30.00;91.00;;;;;;5054058;28;20025;-63
2022/06/18 06:51:20;;;;;;;6.13;2.45;;;30.40;90.80;;;;;;5054000;28;20021;-64
2022/06/18 06:53:46;;;;;;;6.10;2.65;;;30.70;89.60;;;;;;5053692;28;20017;-63
2022/06/18 06:58:58;;;;;;;6.30;2.53;;;30.40;89.40;;;;;;5053822;28;20051;-63
2022/06/18 07:01:24;;;;;;;6.22;2.60;;;30.50;88.90;;;;;;5053834;28;20366;-63
2022/06/18 07:03:50;;;;;;;12.60;5.63;;;30.40;88.80;;;;;;5054416;28;20025;-63
2022/06/18 07:06:16;;;;;;;8.27;3.20;;;30.50;88.80;;;;;;5054304;28;20027;-64
2022/06/18 07:08:43;;;;;;;9.63;3.17;;;30.90;88.00;;;;;;5053497;28;20017;-64
2022/06/18 07:11:09;;;;;;;6.00;2.88;;;31.30;87.10;;;;;;5053725;28;20013;-66
2022/06/18 07:13:35;;;;;;;9.60;2.80;;;31.80;86.30;;;;;;5053407;28;20029;-64
2022/06/18 07:16:00;;;;;;;5.20;2.65;;;32.20;84.70;;;;;;5053516;28;20096;-64
2022/06/18 07:18:31;;;;;;;7.35;2.85;;;32.60;83.80;;;;;;5053572;28;20157;-64
2022/06/18 07:20:57;;;;;;;6.07;2.22;;;32.80;82.60;;;;;;5053783;28;20021;-64
2022/06/18 07:23:23;;;;;;;4.55;2.45;;;33.00;81.60;;;;;;5053009;28;20032;-64
2022/06/18 07:25:49;;;;;;;7.35;2.75;;;33.10;80.70;;;;;;5053490;28;20029;-64
2022/06/18 07:28:14;;;;;;;13.75;3.67;;;33.10;80.40;;;;;;5053144;28;20042;-64
2022/06/18 07:30:40;;;;;;;7.38;2.63;;;33.10;80.10;;;;;;5053131;28;20120;-64
2022/06/18 07:33:07;;;;;;;13.07;3.60;;;33.10;79.50;;;;;;5053559;28;20032;-64
2022/06/18 07:35:34;;;;;;;8.27;2.63;;;33.10;79.70;;;;;;5053553;28;20020;-64
2022/06/18 07:38:00;;;;;;;8.35;2.88;;;33.20;79.20;;;;;;5052994;28;20382;-65
2022/06/18 07:40:33;;;;;;;7.78;3.03;;;33.30;78.50;;;;;;5053355;28;20031;-63
2022/06/18 07:43:00;;;;;;;5.90;2.28;;;33.10;79.30;;;;;;5053278;28;20110;-64
2022/06/18 07:45:26;;;;;;;7.10;3.05;;;33.10;78.80;;;;;;5053487;28;20027;-64
2022/06/18 07:47:52;;;;;;;8.80;2.90;;;33.00;79.00;;;;;;5053177;28;20021;-64
2022/06/18 07:50:20;;;;;;;8.32;3.20;;;32.90;79.00;;;;;;5051522;28;20037;-63
2022/06/18 07:52:46;;;;;;;9.50;2.88;;;33.10;79.00;;;;;;5051600;28;20029;-65
2022/06/18 07:55:17;;;;;;;10.15;3.00;;;33.10;78.70;;;;;;5051911;28;20023;-65
2022/06/18 07:57:43;;;;;;;8.65;2.45;;;33.10;79.60;;;;;;5052925;28;20032;-63
2022/06/18 08:00:12;;;;;;;7.50;2.45;;;33.10;79.40;;;;;;5051501;28;20074;-63
2022/06/18 08:02:39;;;;;;;3.95;1.75;;;32.90;79.50;;;;;;5052624;28;20063;-66
2022/06/18 08:05:06;;;;;;;7.50;2.20;;;32.80;79.00;;;;;;5052707;28;20040;-64
2022/06/18 08:07:31;;;;;;;8.18;2.70;;;32.70;79.30;;;;;;5052934;28;20017;-64
2022/06/18 08:09:57;;;;;;;7.10;2.60;;;32.30;80.20;;;;;;5052883;28;20094;-65
2022/06/18 08:12:22;;;;;;;8.55;2.78;;;32.20;81.20;;;;;;5053173;28;20024;-65
2022/06/18 08:14:48;;;;;;;7.65;2.35;;;32.40;80.90;;;;;;5052918;28;20150;-65
2022/06/18 08:17:14;;;;;;;8.30;2.88;;;32.60;79.80;;;;;;5052967;28;20032;-65
2022/06/18 08:19:39;;;;;;;6.60;2.30;;;32.80;78.80;;;;;;5052769;28;20347;-65
2022/06/18 08:22:05;;;;;;;4.68;2.10;;;33.30;77.90;;;;;;5053018;28;20025;-68
2022/06/18 08:24:31;;;;;;;5.65;2.40;;;33.70;77.00;;;;;;5052729;28;20024;-64
2022/06/18 08:26:57;;;;;;;9.05;2.20;;;34.00;75.50;;;;;;5052979;28;20109;-64
2022/06/18 08:29:24;;;;;;;7.03;2.00;;;34.30;75.50;;;;;;5052902;28;20040;-66
2022/06/18 08:31:50;;;;;;;6.18;2.50;;;34.80;75.00;;;;;;5052244;28;20037;-65
2022/06/18 08:34:16;;;;;;;11.68;3.17;;;35.40;74.40;;;;;;5051983;28;20025;-64
2022/06/18 08:36:42;;;;;;;6.75;2.10;;;35.90;71.90;;;;;;5052544;28;20033;-64
2022/06/18 08:39:09;;;;;;;6.85;2.00;;;36.20;70.80;;;;;;5051578;28;20021;-64
2022/06/18 08:41:34;;;;;;;9.30;2.70;;;36.30;70.50;;;;;;5052550;28;20082;-64
2022/06/18 08:44:23;;;;;;;5.57;2.03;;;36.70;70.40;;;;;;5052547;28;20017;-66
2022/06/18 08:47:20;;;;;;;6.32;2.38;;;37.00;69.10;;;;;;5052134;28;20021;-69
2022/06/18 08:50:10;;;;;;;4.68;2.05;;;37.30;68.60;;;;;;5052395;28;20469;-67
2022/06/18 08:53:14;;;;;;;9.68;3.15;;;37.60;68.30;;;;;;5052826;28;20029;-65
2022/06/18 08:56:12;;;;;;;5.57;2.30;;;37.90;67.80;;;;;;5020787;28;20040;-65
2022/06/18 08:58:41;;;;;;;5.60;2.13;;;38.10;67.30;;;;;;5056372;28;20016;-64
2022/06/18 09:01:09;;;;;;;7.32;2.03;;;38.30;67.00;;;;;;5056202;28;20025;-67
2022/06/18 09:03:46;;;;;;;5.93;2.08;;;38.40;66.20;;;;;;5055992;28;20028;-64
2022/06/18 09:06:21;;;;;;;4.45;2.00;;;38.60;66.10;;;;;;5054723;28;20106;-64
2022/06/18 09:09:29;;;;;;;3.78;2.17;;;38.70;65.60;;;;;;5055777;28;20074;-65
2022/06/18 09:12:09;;;;;;;6.50;2.53;;;38.90;64.50;;;;;;5055740;28;20087;-67
2022/06/18 09:14:48;;;;;;;10.00;2.80;;;39.20;64.30;;;;;;5055858;28;20028;-68
2022/06/18 09:17:25;;;;;;;4.78;1.73;;;39.50;63.80;;;;;;5055954;28;20285;-65
2022/06/18 09:19:57;;;;;;;10.20;4.22;;;39.80;62.80;;;;;;5063200;28;20031;-65
2022/06/18 09:22:25;;;;;;;12.00;5.53;;;39.70;62.90;;;;;;5075525;28;20411;-65
2022/06/18 09:24:56;;;;;;;6.25;2.40;;;39.70;62.60;;;;;;5061434;28;20017;-66
2022/06/18 09:27:25;;;;;;;12.32;4.82;;;39.90;62.70;;;;;;5055606;28;20055;-65
2022/06/18 09:30:02;;;;;;;12.95;4.30;;;39.90;63.40;;;;;;5055540;28;20033;-66
2022/06/18 09:32:36;;;;;;;13.85;3.10;;;39.90;62.90;;;;;;5061902;28;20501;-65
2022/06/18 09:35:16;;;;;;;11.75;3.05;;;39.80;62.70;;;;;;5075774;28;20065;-65
2022/06/18 09:38:01;;;;;;;7.15;2.95;;;40.00;62.70;;;;;;5076005;28;20020;-65
2022/06/18 09:40:29;;;;;;;12.50;3.13;;;40.20;62.30;;;;;;5075785;28;20032;-69
2022/06/18 09:43:09;;;;;;;7.70;2.50;;;40.30;61.80;;;;;;5075405;28;20013;-66
2022/06/18 09:45:44;;;;;;;10.40;3.15;;;40.30;61.70;;;;;;5075364;28;20442;-66
2022/06/18 09:48:10;;;;;;;7.07;2.67;;;40.20;61.40;;;;;;5075438;28;20067;-65
2022/06/18 09:50:45;;;;;;;10.43;2.80;;;40.20;61.30;;;;;;5059638;28;20029;-67
2022/06/18 09:53:27;;;;;;;7.63;2.25;;;40.20;61.40;;;;;;5054912;28;20024;-65
2022/06/18 09:56:02;;;;;;;7.50;2.10;;;40.30;60.90;;;;;;5054974;28;20029;-66
2022/06/18 09:58:33;;;;;;;5.93;2.30;;;40.20;60.80;;;;;;5054766;28;20067;-64
2022/06/18 10:01:00;;;;;;;4.93;2.30;;;40.20;60.80;;;;;;5055086;28;20111;-64
2022/06/18 10:09:10;;;;;;;9.85;1.92;;;40.30;60.70;;;;;;5053768;28;20400;-68
2022/06/18 10:11:38;;;;;;;4.63;1.77;;;40.60;60.20;;;;;;5054712;28;20064;-68
2022/06/18 10:14:23;;;;;;;5.60;1.80;;;41.20;59.80;;;;;;5054234;28;20044;-66
2022/06/18 10:17:14;;;;;;;5.65;2.00;;;41.80;58.90;;;;;;5053245;28;20025;-66
2022/06/18 10:20:08;;;;;;;5.18;1.83;;;42.10;58.30;;;;;;5054646;28;20031;-66
2022/06/18 10:22:59;;;;;;;5.50;1.70;;;42.30;58.30;;;;;;5054647;28;20028;-67
2022/06/18 10:25:41;;;;;;;3.30;1.60;;;42.20;57.60;;;;;;5042846;28;20024;-66
2022/06/18 10:28:29;;;;;;;4.03;1.30;;;42.00;57.40;;;;;;5051916;28;20021;-65
2022/06/18 10:31:20;;;;;;;3.97;1.60;;;41.90;57.80;;;;;;5053563;28;20025;-64
2022/06/18 10:33:55;;;;;;;4.07;1.75;;;41.90;57.50;;;;;;5046225;28;20032;-64
2022/06/18 10:36:48;;;;;;;7.50;1.90;;;41.30;57.70;;;;;;5053798;28;20346;-65
2022/06/18 10:39:19;;;;;;;4.63;1.75;;;40.80;58.20;;;;;;5050663;28;20405;-65
2022/06/18 10:42:03;;;;;;;3.13;1.50;;;40.40;58.60;;;;;;5053331;28;20025;-64
2022/06/18 10:44:57;;;;;;;4.47;1.70;;;40.40;58.70;;;;;;5053190;28;20136;-64
2022/06/18 10:47:34;;;;;;;4.85;1.75;;;40.50;58.20;;;;;;5052484;28;20335;-65
2022/06/18 10:50:02;;;;;;;4.95;1.95;;;40.90;58.20;;;;;;5054051;28;20136;-65
2022/06/18 10:52:28;;;;;;;6.70;1.60;;;41.40;58.20;;;;;;5053603;28;20021;-68
2022/06/18 10:55:18;;;;;;;3.00;1.52;;;41.70;57.80;;;;;;5053718;28;20036;-65
2022/06/18 10:57:45;;;;;;;3.10;1.80;;;42.10;56.80;;;;;;5053510;28;20017;-65
2022/06/18 11:00:18;;;;;;;7.85;1.85;;;42.20;56.70;;;;;;5053390;28;20758;-66
2022/06/18 11:02:45;;;;;;;2.25;1.70;;;42.40;56.60;;;;;;5053411;28;20538;-66
2022/06/18 11:05:31;;;;;;;5.38;1.65;;;42.30;56.30;;;;;;5053601;28;20029;-64
2022/06/18 11:08:00;;;;;;;3.05;1.63;;;42.20;56.30;;;;;;5053461;28;20025;-66
2022/06/18 11:10:49;;;;;;;3.47;1.60;;;42.10;56.30;;;;;;5053439;28;20013;-65
2022/06/18 11:13:25;;;;;;;4.13;1.75;;;42.40;56.50;;;;;;5053529;28;20021;-65
2022/06/18 11:16:13;;;;;;;6.10;2.08;;;42.80;56.00;;;;;;5053632;28;20025;-67
2022/06/18 11:19:00;;;;;;;3.75;1.80;;;43.10;55.40;;;;;;5052888;28;20021;-64
2022/06/18 11:21:40;;;;;;;8.98;2.80;;;42.80;55.30;;;;;;5052790;28;20056;-65
2022/06/18 11:24:12;;;;;;;11.07;3.35;;;42.60;55.60;;;;;;5053119;28;20511;-65
2022/06/18 11:26:43;;;;;;;5.28;1.88;;;42.50;55.40;;;;;;5053383;28;20454;-65
2022/06/18 11:29:19;;;;;;;12.75;2.78;;;42.60;55.20;;;;;;5053073;28;20453;-65
2022/06/18 11:31:51;;;;;;;7.80;2.75;;;42.40;55.10;;;;;;5052926;28;20049;-64
2022/06/18 11:34:25;;;;;;;9.77;2.15;;;41.50;56.00;;;;;;5053446;28;20037;-63
2022/06/18 11:36:54;;;;;;;7.70;2.60;;;41.00;56.40;;;;;;5053344;28;20021;-64
2022/06/18 11:39:27;;;;;;;9.90;2.40;;;41.20;56.40;;;;;;5052935;28;20028;-64
2022/06/18 11:41:59;;;;;;;10.52;2.45;;;41.30;56.30;;;;;;5052879;28;20032;-66
2022/06/18 11:44:35;;;;;;;5.95;2.05;;;41.40;56.00;;;;;;5053576;28;20017;-64
2022/06/18 11:47:29;;;;;;;7.75;2.38;;;41.30;56.10;;;;;;5052974;28;20025;-63
2022/06/18 11:50:01;;;;;;;7.60;3.03;;;41.40;55.90;;;;;;5052843;28;20025;-65
2022/06/18 11:52:46;;;;;;;7.53;2.80;;;41.60;55.20;;;;;;5053059;28;20048;-64
2022/06/18 11:55:35;;;;;;;7.10;2.60;;;41.60;55.60;;;;;;5052685;28;20028;-65
2022/06/18 11:58:18;;;;;;;6.00;2.83;;;41.70;54.80;;;;;;5053147;28;20458;-64
2022/06/18 12:00:52;;;;;;;9.23;2.33;;;41.50;54.80;;;;;;5052698;28;20043;-65
2022/06/18 12:03:28;;;;;;;7.15;2.63;;;41.30;54.90;;;;;;5051618;28;20044;-64
2022/06/18 12:06:01;;;;;;;9.88;2.78;;;41.00;55.10;;;;;;5052833;28;20021;-64
2022/06/18 12:08:28;;;;;;;7.60;2.70;;;40.10;55.60;;;;;;5052826;28;20447;-62
2022/06/18 12:11:09;;;;;;;7.50;2.80;;;39.10;56.40;;;;;;5052897;28;20029;-64
2022/06/18 12:13:48;;;;;;;8.82;2.88;;;38.30;58.00;;;;;;5051549;28;20021;-64
2022/06/18 12:16:16;;;;;;;11.13;3.08;;;37.90;57.50;;;;;;5052975;28;20017;-65
2022/06/18 12:18:48;;;;;;;9.55;2.70;;;37.80;57.10;;;;;;5052649;28;20021;-67
2022/06/18 12:21:32;;;;;;;15.00;2.75;;;37.60;57.00;;;;;;5052333;28;20032;-67
2022/06/18 12:24:15;;;;;;;4.78;1.85;;;37.10;57.20;;;;;;5052718;28;20108;-63
2022/06/18 12:27:00;;;;;;;11.93;2.35;;;37.10;57.40;;;;;;5051921;28;20017;-64
2022/06/18 12:29:56;;;;;;;8.93;2.22;;;36.50;58.10;;;;;;5032778;28;20037;-63
2022/06/18 12:32:32;;;;;;;9.35;1.88;;;35.30;59.30;;;;;;5051238;28;20040;-65
2022/06/18 12:35:27;;;;;;;5.88;1.50;;;34.80;60.30;;;;;;5056618;28;20017;-64
2022/06/18 12:38:25;;;;;;;4.15;1.45;;;34.80;60.20;;;;;;5054637;28;20066;-64
2022/06/18 12:41:07;;;;;;;8.02;1.90;;;34.80;60.00;;;;;;5056066;28;20518;-64
2022/06/18 12:44:06;;;;;;;4.10;1.40;;;34.70;59.90;;;;;;5056517;28;20028;-66
2022/06/18 12:46:43;;;;;;;3.90;1.48;;;34.30;60.40;;;;;;5056321;28;20039;-69
2022/06/18 12:49:12;;;;;;;7.15;1.65;;;33.90;60.90;;;;;;5056186;28;20021;-66
2022/06/18 12:51:55;;;;;;;6.50;2.30;;;33.50;61.50;;;;;;5056157;28;20032;-65
2022/06/18 12:54:45;;;;;;;7.68;1.55;;;32.70;62.50;;;;;;5055916;28;20040;-65
2022/06/18 12:57:27;;;;;;;4.50;1.33;;;32.20;63.30;;;;;;5056498;28;20036;-65
2022/06/18 13:00:14;;;;;;;5.30;1.55;;;31.70;63.70;;;;;;5056342;28;20036;-69
2022/06/18 13:03:13;;;;;;;5.00;1.30;;;31.20;65.10;;;;;;5056159;28;20454;-66
2022/06/18 13:05:49;;;;;;;2.30;1.00;;;30.90;65.80;;;;;;5056298;28;20067;-65
2022/06/18 13:08:45;;;;;;;5.88;1.52;;;30.40;67.00;;;;;;5056232;28;20052;-64
2022/06/18 13:11:21;;;;;;;5.53;1.55;;;29.90;68.60;;;;;;5055794;28;20013;-64
2022/06/18 13:13:56;;;;;;;6.65;1.58;;;29.40;69.80;;;;;;5056091;28;20086;-65
2022/06/18 13:16:40;;;;;;;4.80;1.40;;;29.10;70.70;;;;;;5055975;28;20025;-65
2022/06/18 13:19:11;;;;;;;4.43;1.50;;;29.00;71.30;;;;;;5055673;28;20099;-64